createdAt,value
2022-09-01T00:00:15.037Z,20.40
2022-09-01T00:01:27.050Z,20.42
2022-09-01T00:02:28.980Z,23.75
2022-09-01T00:03:30.784Z,21.45
2022-09-01T00:04:32.918Z,22.20
2022-09-01T00:05:34.837Z,21.35
2022-09-01T00:06:39.743Z,18.55
2022-09-01T00:07:41.476Z,20.05
2022-09-01T00:08:43.142Z,22.88
2022-09-01T00:09:44.786Z,25.17
2022-09-01T00:10:46.397Z,25.33
2022-09-01T00:11:51.997Z,25.13
2022-09-01T00:12:53.636Z,22.08
2022-09-01T00:13:56.691Z,20.85
2022-09-01T00:14:59.182Z,23.17
2022-09-01T00:16:04.303Z,25.75
2022-09-01T00:17:08.678Z,27.48
2022-09-01T00:18:10.285Z,24.07
2022-09-01T00:19:11.891Z,25.63
2022-09-01T00:20:19.617Z,24.98
2022-09-01T00:21:27.900Z,23.43
2022-09-01T00:22:29.814Z,27.80
2022-09-01T00:23:31.429Z,22.43
2022-09-01T00:24:33.111Z,22.10
2022-09-01T00:25:34.878Z,23.03
2022-09-01T00:26:36.752Z,25.47
2022-09-01T00:27:38.418Z,25.90
2022-09-01T00:28:40.747Z,22.37
2022-09-01T00:29:43.973Z,22.93
2022-09-01T00:30:45.985Z,26.77
2022-09-01T00:31:47.988Z,25.17
2022-09-01T00:32:49.577Z,21.43
2022-09-01T00:33:52.189Z,22.87
2022-09-01T00:34:53.800Z,31.03
2022-09-01T00:35:55.446Z,36.33
2022-09-01T00:36:57.318Z,34.20
2022-09-01T00:37:58.900Z,50.30
2022-09-01T00:39:05.078Z,58.77
2022-09-01T00:40:09.245Z,47.43
2022-09-01T00:41:11.370Z,45.63
2022-09-01T00:42:12.943Z,44.57
2022-09-01T00:43:21.214Z,46.13
2022-09-01T00:44:29.696Z,39.40
2022-09-01T00:45:33.365Z,45.20
2022-09-01T00:46:55.085Z,44.63
2022-09-01T00:47:57.271Z,42.67
2022-09-01T00:49:04.382Z,38.57
2022-09-01T00:50:08.946Z,43.35
2022-09-01T00:51:13.004Z,38.33
2022-09-01T00:52:22.410Z,41.37
2022-09-01T00:53:24.038Z,40.23
2022-09-01T00:54:30.789Z,40.97
2022-09-01T00:55:34.742Z,35.87
2022-09-01T00:56:39.823Z,34.87
2022-09-01T00:57:48.291Z,39.80
2022-09-01T00:58:52.593Z,36.17
2022-09-01T01:00:02.179Z,39.17
2022-09-01T01:01:06.246Z,38.45
2022-09-01T01:02:08.209Z,36.73
2022-09-01T01:03:14.229Z,37.20
2022-09-01T01:04:16.461Z,34.60
2022-09-01T01:05:18.913Z,37.03
2022-09-01T01:06:26.869Z,39.77
2022-09-01T01:07:37.065Z,33.17
2022-09-01T01:08:41.890Z,35.03
2022-09-01T01:09:45.499Z,37.37
2022-09-01T01:10:47.329Z,36.23
2022-09-01T01:11:49.255Z,35.60
2022-09-01T01:12:51.692Z,34.85
2022-09-01T01:13:59.035Z,31.80
2022-09-01T01:15:01.151Z,33.23
2022-09-01T01:16:07.897Z,29.65
2022-09-01T01:17:09.485Z,29.40
2022-09-01T01:18:16.983Z,32.97
2022-09-01T01:19:48.035Z,34.40
2022-09-01T01:21:24.492Z,34.13
2022-09-01T01:23:00.359Z,37.05
2022-09-01T01:24:09.297Z,39.10
2022-09-01T01:25:12.903Z,34.70
2022-09-01T01:26:14.672Z,37.75
2022-09-01T01:27:21.905Z,45.07
2022-09-01T01:28:29.341Z,48.83
2022-09-01T01:29:38.779Z,43.27
2022-09-01T01:30:44.038Z,47.57
2022-09-01T01:31:50.134Z,38.87
2022-09-01T01:32:51.967Z,41.17
2022-09-01T01:33:56.793Z,34.47
2022-09-01T01:34:58.439Z,35.00
2022-09-01T01:36:01.444Z,35.33
2022-09-01T01:37:03.163Z,34.60
2022-09-01T01:38:08.044Z,37.10
2022-09-01T01:39:13.772Z,33.00
2022-09-01T01:40:18.609Z,32.77
2022-09-01T01:41:20.858Z,34.23
2022-09-01T01:42:24.337Z,30.83
2022-09-01T01:43:27.608Z,29.35
2022-09-01T01:44:29.566Z,29.70
2022-09-01T01:45:31.311Z,27.88
2022-09-01T01:46:34.745Z,27.55
2022-09-01T01:47:36.322Z,26.97
2022-09-01T01:48:40.567Z,27.17
2022-09-01T01:49:45.235Z,27.92
2022-09-01T01:50:49.322Z,25.60
2022-09-01T01:51:56.215Z,24.63
2022-09-01T01:53:00.170Z,24.63
2022-09-01T01:54:05.573Z,24.33
2022-09-01T01:55:12.536Z,25.23
2022-09-01T01:56:14.484Z,29.08
2022-09-01T01:57:17.892Z,52.45
2022-09-01T01:58:22.091Z,31.08
2022-09-01T01:59:24.768Z,39.95
2022-09-01T02:00:31.774Z,58.00
2022-09-01T02:01:33.833Z,53.60
2022-09-01T02:02:38.182Z,89.22
2022-09-01T02:03:40.377Z,129.63
2022-09-01T02:04:43.424Z,62.35
2022-09-01T02:05:47.090Z,36.97
2022-09-01T02:06:50.084Z,32.95
2022-09-01T02:07:59.993Z,33.53
2022-09-01T02:09:03.301Z,43.60
2022-09-01T02:10:05.338Z,38.90
2022-09-01T02:11:08.116Z,56.33
2022-09-01T02:12:09.870Z,65.78
2022-09-01T02:13:17.506Z,39.30
2022-09-01T02:14:21.237Z,144.88
2022-09-01T02:15:22.891Z,41.75
2022-09-01T02:16:27.044Z,55.22
2022-09-01T02:17:29.015Z,42.65
2022-09-01T02:18:38.190Z,41.13
2022-09-01T02:19:43.277Z,36.95
2022-09-01T02:20:47.736Z,35.53
2022-09-01T02:21:54.336Z,36.03
2022-09-01T02:22:56.529Z,39.22
2022-09-01T02:24:02.066Z,37.60
2022-09-01T02:25:07.794Z,34.55
2022-09-01T02:26:18.526Z,39.13
2022-09-01T02:27:25.150Z,34.08
2022-09-01T02:28:28.675Z,38.63
2022-09-01T02:29:30.414Z,40.67
2022-09-01T02:30:37.946Z,44.43
2022-09-01T02:31:39.934Z,37.03
2022-09-01T02:32:41.886Z,37.15
2022-09-01T02:33:47.576Z,38.35
2022-09-01T02:34:53.643Z,39.17
2022-09-01T02:35:58.283Z,41.40
2022-09-01T02:36:59.859Z,41.78
2022-09-01T02:38:01.734Z,41.30
2022-09-01T02:39:04.118Z,41.28
2022-09-01T02:40:12.866Z,41.10
2022-09-01T02:41:20.017Z,38.70
2022-09-01T02:42:27.588Z,39.45
2022-09-01T02:43:31.682Z,38.22
2022-09-01T02:44:36.251Z,45.25
2022-09-01T02:45:42.761Z,41.30
2022-09-01T02:46:46.242Z,38.08
2022-09-01T02:47:48.530Z,38.88
2022-09-01T02:48:51.575Z,44.42
2022-09-01T02:49:54.185Z,64.35
2022-09-01T02:50:57.382Z,37.30
2022-09-01T02:52:01.815Z,40.90
2022-09-01T02:53:09.771Z,45.03
2022-09-01T02:54:16.629Z,51.75
2022-09-01T02:55:22.044Z,49.55
2022-09-01T02:56:27.689Z,50.22
2022-09-01T02:57:29.497Z,49.05
2022-09-01T02:58:34.320Z,47.60
2022-09-01T02:59:40.625Z,57.28
2022-09-01T03:00:45.438Z,50.83
2022-09-01T03:01:48.784Z,54.78
2022-09-01T03:02:52.890Z,54.92
2022-09-01T03:04:01.367Z,59.67
2022-09-01T03:05:03.035Z,59.85
2022-09-01T03:06:09.239Z,58.20
2022-09-01T03:07:10.863Z,62.23
2022-09-01T03:08:16.112Z,61.03
2022-09-01T03:09:19.243Z,61.73
2022-09-01T03:10:22.006Z,61.40
2022-09-01T03:11:29.523Z,62.10
2022-09-01T03:12:31.148Z,64.97
2022-09-01T03:13:32.724Z,68.57
2022-09-01T03:14:34.371Z,64.33
2022-09-01T03:15:37.277Z,70.10
2022-09-01T03:16:39.486Z,71.47
2022-09-01T03:17:41.862Z,69.73
2022-09-01T03:18:43.466Z,70.57
2022-09-01T03:19:46.763Z,64.80
2022-09-01T03:20:53.048Z,64.40
2022-09-01T03:21:55.240Z,69.13
2022-09-01T03:22:58.310Z,60.80
2022-09-01T03:24:02.178Z,63.90
2022-09-01T03:25:04.901Z,56.33
2022-09-01T03:26:06.556Z,56.67
2022-09-01T03:27:08.931Z,54.60
2022-09-01T03:28:13.150Z,55.57
2022-09-01T03:29:15.463Z,49.43
2022-09-01T03:30:17.297Z,49.53
2022-09-01T03:31:20.557Z,46.87
2022-09-01T03:32:22.342Z,50.97
2022-09-01T03:33:26.480Z,52.33
2022-09-01T03:34:28.380Z,51.10
2022-09-01T03:35:32.039Z,54.70
2022-09-01T03:36:34.070Z,48.17
2022-09-01T03:37:36.282Z,50.83
2022-09-01T03:38:37.952Z,48.87
2022-09-01T03:39:39.517Z,52.27
2022-09-01T03:40:41.572Z,54.70
2022-09-01T03:41:43.584Z,49.37
2022-09-01T03:42:45.634Z,53.33
2022-09-01T03:43:48.558Z,46.93
2022-09-01T03:44:52.016Z,54.03
2022-09-01T03:45:56.798Z,53.97
2022-09-01T03:46:58.521Z,54.53
2022-09-01T03:48:00.455Z,50.27
2022-09-01T03:49:03.328Z,56.57
2022-09-01T03:50:05.256Z,53.10
2022-09-01T03:51:06.890Z,64.53
2022-09-01T03:52:09.001Z,57.50
2022-09-01T03:53:15.546Z,65.93
2022-09-01T03:54:18.108Z,71.13
2022-09-01T03:55:26.818Z,64.37
2022-09-01T03:56:29.716Z,60.37
2022-09-01T03:57:32.425Z,65.40
2022-09-01T03:58:35.485Z,59.10
2022-09-01T03:59:43.415Z,63.43
2022-09-01T04:00:49.296Z,60.07
2022-09-01T04:01:51.431Z,65.60
2022-09-01T04:02:56.879Z,57.70
2022-09-01T04:03:58.497Z,70.97
2022-09-01T04:05:02.720Z,64.37
2022-09-01T04:06:09.629Z,66.77
2022-09-01T04:07:15.480Z,60.80
2022-09-01T04:08:32.813Z,57.53
2022-09-01T04:09:35.354Z,53.87
2022-09-01T04:10:44.360Z,53.33
2022-09-01T04:11:48.549Z,48.57
2022-09-01T04:12:50.774Z,51.20
2022-09-01T04:13:52.488Z,44.93
2022-09-01T04:14:54.121Z,46.05
2022-09-01T04:15:56.664Z,44.60
2022-09-01T04:17:16.740Z,49.77
2022-09-01T04:18:22.221Z,45.15
2022-09-01T04:19:26.592Z,45.47
2022-09-01T04:20:29.146Z,49.17
2022-09-01T04:21:33.400Z,43.60
2022-09-01T04:22:38.351Z,46.88
2022-09-01T04:23:39.936Z,42.03
2022-09-01T04:24:46.145Z,47.87
2022-09-01T04:25:50.404Z,44.58
2022-09-01T04:26:53.076Z,46.00
2022-09-01T04:27:55.485Z,49.78
2022-09-01T04:28:57.253Z,44.75
2022-09-01T04:29:58.880Z,43.65
2022-09-01T04:31:05.867Z,42.92
2022-09-01T04:32:12.829Z,43.42
2022-09-01T04:33:16.890Z,48.60
2022-09-01T04:34:18.516Z,46.25
2022-09-01T04:35:21.002Z,48.43
2022-09-01T04:36:25.985Z,47.78
2022-09-01T04:37:28.646Z,60.57
2022-09-01T04:38:30.708Z,47.53
2022-09-01T04:39:32.390Z,44.10
2022-09-01T04:40:39.230Z,54.37
2022-09-01T04:41:46.025Z,49.07
2022-09-01T04:42:47.613Z,51.00
2022-09-01T04:43:52.131Z,49.57
2022-09-01T04:44:56.670Z,68.03
2022-09-01T04:45:59.201Z,48.90
2022-09-01T04:47:00.763Z,52.03
2022-09-01T04:48:05.181Z,47.63
2022-09-01T04:49:13.025Z,42.83
2022-09-01T04:50:17.247Z,46.83
2022-09-01T04:51:20.841Z,42.20
2022-09-01T04:52:22.537Z,38.88
2022-09-01T04:53:25.084Z,45.70
2022-09-01T04:54:32.921Z,42.50
2022-09-01T04:55:39.083Z,45.07
2022-09-01T04:56:45.337Z,43.75
2022-09-01T04:57:49.548Z,52.07
2022-09-01T04:58:55.902Z,55.90
2022-09-01T04:59:58.446Z,56.33
2022-09-01T05:01:00.457Z,49.92
2022-09-01T05:02:02.138Z,49.42
2022-09-01T05:03:06.947Z,40.67
2022-09-01T05:04:11.632Z,37.58
2022-09-01T05:05:13.246Z,35.42
2022-09-01T05:06:20.094Z,36.60
2022-09-01T05:07:21.676Z,39.33
2022-09-01T05:08:24.561Z,34.17
2022-09-01T05:09:32.153Z,38.33
2022-09-01T05:10:36.825Z,45.88
2022-09-01T05:11:40.033Z,46.30
2022-09-01T05:12:41.703Z,44.28
2022-09-01T05:13:45.506Z,46.75
2022-09-01T05:14:48.744Z,47.42
2022-09-01T05:16:01.972Z,48.00
2022-09-01T05:17:04.303Z,45.00
2022-09-01T05:18:10.495Z,48.67
2022-09-01T05:19:14.830Z,55.42
2022-09-01T05:20:16.525Z,48.17
2022-09-01T05:21:22.364Z,50.53
2022-09-01T05:22:24.228Z,53.05
2022-09-01T05:23:26.732Z,49.92
2022-09-01T05:24:30.494Z,52.55
2022-09-01T05:25:39.151Z,51.78
2022-09-01T05:26:43.796Z,50.28
2022-09-01T05:27:49.717Z,52.42
2022-09-01T05:28:56.603Z,52.63
2022-09-01T05:30:00.255Z,57.78
2022-09-01T05:31:02.211Z,59.92
2022-09-01T05:32:08.847Z,67.13
2022-09-01T05:33:11.717Z,55.85
2022-09-01T05:34:15.329Z,51.83
2022-09-01T05:35:17.597Z,51.67
2022-09-01T05:36:23.079Z,58.45
2022-09-01T05:37:25.150Z,54.72
2022-09-01T05:38:26.766Z,54.78
2022-09-01T05:39:28.649Z,62.97
2022-09-01T05:40:30.584Z,65.53
2022-09-01T05:41:35.829Z,60.33
2022-09-01T05:42:40.728Z,59.22
2022-09-01T05:43:46.534Z,62.33
2022-09-01T05:44:48.957Z,61.38
2022-09-01T05:46:06.012Z,57.70
2022-09-01T05:47:09.688Z,55.55
2022-09-01T05:48:23.790Z,54.97
2022-09-01T05:49:28.667Z,55.60
2022-09-01T05:50:31.483Z,47.35
2022-09-01T05:51:44.223Z,48.08
2022-09-01T05:52:48.241Z,46.28
2022-09-01T05:53:55.109Z,50.83
2022-09-01T05:54:59.890Z,53.83
2022-09-01T05:56:07.844Z,55.30
2022-09-01T05:57:32.869Z,56.35
2022-09-01T05:59:22.324Z,51.55
2022-09-01T05:59:56.527Z,47.80
2022-09-01T06:00:59.346Z,48.10
2022-09-01T06:02:01.101Z,47.70
2022-09-01T06:03:04.798Z,49.03
2022-09-01T06:04:08.301Z,51.00
2022-09-01T06:05:11.128Z,46.80
2022-09-01T06:06:12.738Z,49.45
2022-09-01T06:07:17.622Z,44.17
2022-09-01T06:08:21.589Z,48.28
2022-09-01T06:09:23.516Z,41.92
2022-09-01T06:10:25.128Z,41.25
2022-09-01T06:11:28.506Z,41.25
2022-09-01T06:12:30.328Z,37.30
2022-09-01T06:13:32.543Z,41.35
2022-09-01T06:14:36.173Z,42.53
2022-09-01T06:15:39.113Z,38.60
2022-09-01T06:16:40.699Z,36.47
2022-09-01T06:17:43.889Z,37.40
2022-09-01T06:18:45.798Z,37.38
2022-09-01T06:19:52.725Z,39.17
2022-09-01T06:20:55.340Z,37.08
2022-09-01T06:21:56.954Z,41.50
2022-09-01T06:22:58.589Z,37.90
2022-09-01T06:24:00.871Z,36.13
2022-09-01T06:25:06.716Z,34.78
2022-09-01T06:26:17.730Z,34.38
2022-09-01T06:27:20.436Z,35.88
2022-09-01T06:28:25.793Z,33.45
2022-09-01T06:29:27.440Z,38.05
2022-09-01T06:30:30.436Z,35.08
2022-09-01T06:31:34.246Z,38.90
2022-09-01T06:32:38.574Z,40.53
2022-09-01T06:33:40.452Z,39.88
2022-09-01T06:34:44.555Z,40.15
2022-09-01T06:35:47.635Z,35.53
2022-09-01T06:36:51.775Z,38.05
2022-09-01T06:37:53.535Z,30.35
2022-09-01T06:38:55.636Z,30.52
2022-09-01T06:39:57.648Z,34.13
2022-09-01T06:41:04.419Z,34.10
2022-09-01T06:42:06.804Z,34.88
2022-09-01T06:43:09.701Z,29.60
2022-09-01T06:44:14.532Z,33.55
2022-09-01T06:45:17.985Z,32.22
2022-09-01T06:46:23.491Z,33.03
2022-09-01T06:47:25.177Z,37.40
2022-09-01T06:48:26.851Z,29.98
2022-09-01T06:49:34.830Z,30.20
2022-09-01T06:52:03.884Z,28.65
2022-09-01T06:54:34.213Z,28.38
2022-09-01T06:55:38.289Z,27.23
2022-09-01T06:56:44.818Z,30.70
2022-09-01T06:58:09.539Z,35.72
2022-09-01T06:59:15.784Z,41.42
2022-09-01T07:00:20.943Z,43.92
2022-09-01T07:01:24.213Z,42.22
2022-09-01T07:02:26.858Z,42.47
2022-09-01T07:03:29.019Z,41.25
2022-09-01T07:04:31.486Z,37.92
2022-09-01T07:07:53.007Z,40.05
2022-09-01T07:08:22.021Z,47.00
2022-09-01T07:09:38.495Z,40.83
2022-09-01T07:12:27.004Z,45.05
2022-09-01T07:13:30.794Z,42.28
2022-09-01T07:16:30.161Z,41.60
2022-09-01T07:17:22.656Z,41.75
2022-09-01T07:18:27.257Z,43.90
2022-09-01T07:22:35.768Z,39.97
2022-09-01T07:23:47.341Z,42.15
2022-09-01T07:25:16.839Z,37.50
2022-09-01T07:26:26.979Z,35.45
2022-09-01T07:29:00.697Z,34.58
2022-09-01T07:30:03.463Z,35.92
2022-09-01T07:33:54.147Z,32.25
2022-09-01T07:34:56.133Z,33.75
2022-09-01T07:42:30.579Z,37.10
2022-09-01T07:42:55.723Z,35.92
2022-09-01T07:44:05.344Z,26.70
2022-09-01T07:45:27.687Z,25.15
2022-09-01T07:46:37.390Z,27.02
2022-09-01T07:47:54.981Z,24.65
2022-09-01T07:51:42.055Z,24.77
2022-09-01T07:52:44.108Z,27.35
2022-09-01T07:53:51.081Z,27.33
2022-09-01T07:54:52.950Z,25.83
2022-09-01T07:55:56.244Z,24.65
2022-09-01T07:56:57.853Z,25.88
2022-09-01T07:57:59.720Z,26.45
2022-09-01T07:59:02.240Z,28.98
2022-09-01T08:00:06.523Z,26.33
2022-09-01T08:01:13.409Z,24.10
2022-09-01T08:02:17.699Z,23.63
2022-09-01T08:03:22.485Z,23.17
2022-09-01T08:04:24.836Z,23.95
2022-09-01T08:05:27.328Z,22.73
2022-09-01T08:06:38.006Z,22.67
2022-09-01T08:07:55.884Z,21.50
2022-09-01T08:09:00.333Z,24.05
2022-09-01T08:10:02.103Z,22.67
2022-09-01T08:11:04.346Z,20.00
2022-09-01T08:12:07.799Z,25.33
2022-09-01T08:13:15.304Z,21.10
2022-09-01T08:14:18.234Z,22.33
2022-09-01T08:16:51.980Z,23.05
2022-09-01T08:17:54.920Z,24.20
2022-09-01T08:18:57.913Z,26.33
2022-09-01T08:19:59.550Z,22.48
2022-09-01T08:21:06.848Z,23.92
2022-09-01T08:22:08.519Z,25.20
2022-09-01T08:23:10.111Z,23.52
2022-09-01T08:24:11.738Z,26.27
2022-09-01T08:25:13.900Z,26.63
2022-09-01T08:26:18.227Z,23.77
2022-09-01T08:27:20.136Z,22.98
2022-09-01T08:28:29.241Z,24.05
2022-09-01T08:29:31.110Z,22.88
2022-09-01T08:30:35.648Z,23.75
2022-09-01T08:31:37.340Z,22.88
2022-09-01T08:32:42.191Z,25.83
2022-09-01T08:33:45.313Z,29.52
2022-09-01T08:34:46.976Z,41.70
2022-09-01T08:35:49.469Z,27.50
2022-09-01T08:36:51.388Z,24.77
2022-09-01T08:37:54.159Z,24.38
2022-09-01T08:38:55.957Z,28.60
2022-09-01T08:39:57.710Z,23.02
2022-09-01T08:41:00.277Z,22.23
2022-09-01T08:42:20.601Z,23.10
2022-09-01T08:43:37.861Z,24.02
2022-09-01T08:44:51.615Z,27.73
2022-09-01T08:45:58.607Z,23.15
2022-09-01T08:47:13.694Z,24.80
2022-09-01T08:49:23.166Z,23.08
2022-09-01T08:49:51.493Z,22.63
2022-09-01T08:51:03.469Z,25.65
2022-09-01T08:52:24.165Z,20.08
2022-09-01T08:53:34.127Z,23.33
2022-09-01T08:54:47.785Z,22.95
2022-09-01T08:55:55.707Z,23.58
2022-09-01T08:57:02.124Z,20.67
2022-09-01T08:58:04.844Z,21.70
2022-09-01T08:59:09.923Z,21.70
2022-09-01T09:00:15.661Z,23.70
2022-09-01T09:01:36.524Z,19.70
2022-09-01T09:03:13.051Z,23.38
2022-09-01T09:04:23.711Z,23.60
2022-09-01T09:06:12.747Z,20.90
2022-09-01T09:07:41.753Z,19.10
2022-09-01T09:09:01.101Z,22.10
2022-09-01T09:10:15.345Z,21.52
2022-09-01T09:11:35.243Z,20.92
2022-09-01T09:12:55.917Z,21.77
2022-09-01T09:14:00.140Z,20.95
2022-09-01T09:15:07.881Z,19.67
2022-09-01T09:16:26.350Z,23.48
2022-09-01T09:17:34.605Z,19.48
2022-09-01T09:18:56.903Z,22.83
2022-09-01T09:20:01.299Z,17.90
2022-09-01T09:21:13.090Z,21.70
2022-09-01T09:22:19.429Z,19.38
2022-09-01T09:23:28.333Z,18.85
2022-09-01T09:25:00.976Z,18.63
2022-09-01T09:26:03.474Z,20.35
2022-09-01T09:27:05.325Z,19.65
2022-09-01T09:28:10.408Z,20.02
2022-09-01T09:29:14.343Z,24.73
2022-09-01T09:30:23.582Z,19.45
2022-09-01T09:31:38.614Z,21.05
2022-09-01T09:34:32.736Z,18.45
2022-09-01T09:35:46.597Z,18.52
2022-09-01T09:36:54.678Z,19.75
2022-09-01T09:38:21.053Z,17.00
2022-09-01T09:39:23.379Z,19.70
2022-09-01T09:40:27.032Z,16.23
2022-09-01T09:41:28.837Z,19.45
2022-09-01T09:42:34.876Z,23.55
2022-09-01T09:43:47.519Z,26.45
2022-09-01T09:44:52.887Z,24.20
2022-09-01T09:46:25.306Z,20.33
2022-09-01T09:47:54.517Z,20.00
2022-09-01T09:49:10.264Z,20.23
2022-09-01T09:50:20.504Z,20.23
2022-09-01T09:51:22.655Z,21.27
2022-09-01T09:52:24.251Z,16.75
2022-09-01T09:53:28.586Z,17.40
2022-09-01T09:54:35.280Z,19.67
2022-09-01T09:55:37.178Z,15.10
2022-09-01T09:56:44.558Z,19.40
2022-09-01T09:57:46.177Z,16.50
2022-09-01T09:58:49.143Z,19.90
2022-09-01T10:00:00.476Z,19.02
2022-09-01T10:01:06.766Z,20.00
2022-09-01T10:02:34.468Z,18.60
2022-09-01T10:03:49.967Z,17.30
2022-09-01T10:04:55.820Z,20.10
2022-09-01T10:05:57.680Z,20.80
2022-09-01T10:06:59.341Z,21.10
2022-09-01T10:08:01.114Z,15.23
2022-09-01T10:09:16.534Z,17.98
2022-09-01T10:10:58.323Z,17.52
2022-09-01T10:12:02.370Z,21.27
2022-09-01T10:13:08.321Z,19.10
2022-09-01T10:14:35.931Z,17.50
2022-09-01T10:15:41.374Z,22.17
2022-09-01T10:16:44.400Z,24.48
2022-09-01T10:18:13.543Z,18.85
2022-09-01T10:19:16.395Z,18.45
2022-09-01T10:20:25.393Z,18.15
2022-09-01T10:21:45.045Z,15.85
2022-09-01T10:22:48.604Z,21.50
2022-09-01T10:23:53.448Z,15.15
2022-09-01T10:24:56.298Z,17.30
2022-09-01T10:26:16.655Z,14.68
2022-09-01T10:27:25.018Z,14.07
2022-09-01T10:28:31.099Z,21.20
2022-09-01T10:29:47.881Z,19.20
2022-09-01T10:30:52.664Z,20.88
2022-09-01T10:32:14.816Z,19.63
2022-09-01T10:33:21.026Z,22.38
2022-09-01T10:34:24.273Z,16.45
2022-09-01T10:35:34.451Z,17.15
2022-09-01T10:36:37.837Z,16.13
2022-09-01T10:37:41.394Z,21.35
2022-09-01T10:38:50.334Z,18.25
2022-09-01T10:40:30.413Z,14.95
2022-09-01T10:41:59.803Z,17.88
2022-09-01T10:43:38.070Z,16.85
2022-09-01T10:45:01.987Z,18.20
2022-09-01T10:46:25.940Z,16.45
2022-09-01T10:47:34.079Z,21.27
2022-09-01T10:48:51.842Z,16.48
2022-09-01T10:50:20.206Z,15.98
2022-09-01T10:51:22.550Z,14.05
2022-09-01T10:52:41.803Z,16.85
2022-09-01T10:53:46.973Z,16.67
2022-09-01T10:54:56.334Z,12.90
2022-09-01T10:56:28.851Z,17.95
2022-09-01T10:57:42.321Z,15.00
2022-09-01T11:00:35.106Z,14.60
2022-09-01T11:01:48.305Z,14.48
2022-09-01T11:04:37.360Z,13.05
2022-09-01T11:06:33.274Z,13.63
2022-09-01T11:07:59.844Z,12.45
2022-09-01T11:09:06.081Z,16.35
2022-09-01T11:10:35.376Z,13.52
2022-09-01T11:11:50.475Z,18.08
2022-09-01T11:13:07.006Z,14.50
2022-09-01T11:14:23.659Z,12.63
2022-09-01T11:15:35.809Z,11.68
2022-09-01T11:16:46.653Z,10.48
2022-09-01T11:17:51.751Z,11.35
2022-09-01T11:18:54.416Z,11.30
2022-09-01T11:20:18.144Z,13.32
2022-09-01T11:21:31.186Z,11.35
2022-09-01T11:22:36.287Z,10.32
2022-09-01T11:23:41.322Z,10.95
2022-09-01T11:24:43.011Z,10.63
2022-09-01T11:25:48.540Z,10.07
2022-09-01T11:27:32.129Z,9.05
2022-09-01T11:28:38.779Z,10.82
2022-09-01T11:29:59.956Z,8.70
2022-09-01T11:31:07.079Z,9.13
2022-09-01T11:32:09.370Z,9.52
2022-09-01T11:33:26.323Z,10.70
2022-09-01T11:34:29.220Z,9.32
2022-09-01T11:35:31.012Z,9.25
2022-09-01T11:36:48.254Z,7.78
2022-09-01T11:37:54.910Z,13.23
2022-09-01T11:39:14.201Z,10.05
2022-09-01T11:40:32.777Z,9.10
2022-09-01T11:41:40.651Z,9.85
2022-09-01T11:42:45.906Z,14.30
2022-09-01T11:43:48.493Z,26.95
2022-09-01T11:45:04.364Z,12.18
2022-09-01T11:46:19.489Z,10.75
2022-09-01T11:47:27.519Z,10.85
2022-09-01T11:48:31.100Z,11.43
2022-09-01T11:49:35.873Z,10.95
2022-09-01T11:50:40.444Z,9.57
2022-09-01T11:51:47.865Z,13.60
2022-09-01T11:53:04.035Z,10.25
2022-09-01T11:54:06.771Z,14.10
2022-09-01T11:55:10.508Z,11.63
2022-09-01T11:56:26.182Z,11.13
2022-09-01T11:57:41.042Z,12.40
2022-09-01T11:58:43.050Z,24.00
2022-09-01T11:59:45.543Z,11.43
2022-09-01T12:00:47.554Z,11.43
2022-09-01T12:01:49.788Z,16.15
2022-09-01T12:02:54.404Z,10.48
2022-09-01T12:04:17.320Z,13.27
2022-09-01T12:05:27.791Z,11.80
2022-09-01T12:06:29.738Z,11.65
2022-09-01T12:07:49.355Z,12.05
2022-09-01T12:08:56.609Z,9.13
2022-09-01T12:09:58.412Z,10.52
2022-09-01T12:11:09.763Z,25.90
2022-09-01T12:12:35.046Z,13.45
2022-09-01T12:13:37.511Z,12.57
2022-09-01T12:15:04.479Z,14.70
2022-09-01T12:16:17.816Z,12.88
2022-09-01T12:17:20.787Z,10.38
2022-09-01T12:18:27.918Z,10.82
2022-09-01T12:19:33.854Z,11.07
2022-09-01T12:20:39.074Z,9.75
2022-09-01T12:21:43.100Z,46.80
2022-09-01T12:22:45.452Z,13.73
2022-09-01T12:23:47.218Z,12.63
2022-09-01T12:24:52.045Z,10.20
2022-09-01T12:26:10.108Z,9.82
2022-09-01T12:27:15.002Z,7.63
2022-09-01T12:28:16.805Z,10.20
2022-09-01T12:29:19.509Z,11.95
2022-09-01T12:30:22.307Z,10.10
2022-09-01T12:31:25.709Z,12.05
2022-09-01T12:32:27.734Z,12.80
2022-09-01T12:33:30.196Z,10.65
2022-09-01T12:34:34.537Z,12.30
2022-09-01T12:35:36.353Z,8.82
2022-09-01T12:36:38.745Z,10.07
2022-09-01T12:37:40.405Z,14.68
2022-09-01T12:38:42.411Z,13.35
2022-09-01T12:39:50.210Z,14.30
2022-09-01T12:40:55.223Z,9.45
2022-09-01T12:42:11.643Z,12.15
2022-09-01T12:43:37.099Z,15.63
2022-09-01T12:44:39.567Z,11.35
2022-09-01T12:45:43.215Z,11.48
2022-09-01T12:46:46.654Z,12.75
2022-09-01T12:47:50.875Z,10.93
2022-09-01T12:48:52.671Z,11.50
2022-09-01T12:49:55.746Z,12.10
2022-09-01T12:51:04.287Z,11.18
2022-09-01T12:52:10.249Z,12.65
2022-09-01T12:53:17.976Z,10.75
2022-09-01T12:54:26.018Z,9.65
2022-09-01T12:56:51.839Z,11.75
2022-09-01T12:57:57.096Z,10.18
2022-09-01T12:59:26.284Z,14.63
2022-09-01T13:01:18.029Z,10.80
2022-09-01T13:02:27.927Z,15.65
2022-09-01T13:03:30.644Z,14.55
2022-09-01T13:04:33.804Z,15.30
2022-09-01T13:05:42.326Z,12.30
2022-09-01T13:06:44.297Z,12.88
2022-09-01T13:07:45.914Z,11.65
2022-09-01T13:08:47.493Z,12.88
2022-09-01T13:09:49.074Z,15.25
2022-09-01T13:10:53.863Z,14.73
2022-09-01T13:12:19.827Z,10.73
2022-09-01T13:13:26.480Z,10.90
2022-09-01T13:14:31.751Z,16.40
2022-09-01T13:15:34.905Z,14.27
2022-09-01T13:16:37.274Z,12.70
2022-09-01T13:17:39.270Z,16.42
2022-09-01T13:20:06.847Z,14.82
2022-09-01T13:21:08.810Z,12.93
2022-09-01T13:22:11.023Z,16.10
2022-09-01T13:23:12.839Z,15.45
2022-09-01T13:24:14.748Z,13.90
2022-09-01T13:25:19.620Z,12.07
2022-09-01T13:26:21.566Z,14.10
2022-09-01T13:27:23.524Z,17.17
2022-09-01T13:28:26.552Z,20.00
2022-09-01T13:29:28.213Z,13.45
2022-09-01T13:30:30.165Z,13.43
2022-09-01T13:31:32.319Z,14.65
2022-09-01T13:32:34.466Z,19.45
2022-09-01T13:34:09.423Z,12.35
2022-09-01T13:34:58.071Z,14.15
2022-09-01T13:36:01.044Z,13.73
2022-09-01T13:37:02.655Z,12.02
2022-09-01T13:38:04.420Z,12.63
2022-09-01T13:39:06.026Z,11.75
2022-09-01T13:40:10.301Z,12.13
2022-09-01T13:41:12.673Z,11.55
2022-09-01T13:42:17.506Z,13.93
2022-09-01T13:43:22.559Z,11.10
2022-09-01T13:44:24.290Z,13.50
2022-09-01T13:45:26.156Z,12.27
2022-09-01T13:46:27.844Z,12.43
2022-09-01T13:47:30.574Z,16.33
2022-09-01T13:50:14.537Z,14.02
2022-09-01T13:51:27.014Z,10.52
2022-09-01T13:52:28.804Z,13.73
2022-09-01T13:53:30.387Z,11.52
2022-09-01T13:54:31.969Z,12.00
2022-09-01T13:55:37.973Z,12.88
2022-09-01T13:56:40.284Z,14.73
2022-09-01T13:57:42.445Z,10.68
2022-09-01T13:58:44.040Z,13.88
2022-09-01T13:59:47.902Z,11.63
2022-09-01T14:00:50.966Z,14.82
2022-09-01T14:01:53.061Z,16.42
2022-09-01T14:02:56.562Z,17.63
2022-09-01T14:04:00.500Z,12.48
2022-09-01T14:05:02.691Z,13.15
2022-09-01T14:06:06.311Z,12.85
2022-09-01T14:07:07.929Z,16.48
2022-09-01T14:08:11.076Z,12.20
2022-09-01T14:09:17.565Z,11.30
2022-09-01T14:10:22.292Z,14.77
2022-09-01T14:11:24.628Z,13.65
2022-09-01T14:12:26.430Z,10.57
2022-09-01T14:13:28.613Z,14.57
2022-09-01T14:15:53.618Z,10.50
2022-09-01T14:16:55.319Z,10.93
2022-09-01T14:17:58.081Z,11.35
2022-09-01T14:18:59.880Z,13.35
2022-09-01T14:20:02.333Z,12.07
2022-09-01T14:21:04.263Z,13.55
2022-09-01T14:22:06.240Z,12.23
2022-09-01T14:23:10.787Z,12.82
2022-09-01T14:24:12.929Z,16.67
2022-09-01T14:25:15.862Z,14.40
2022-09-01T14:26:17.783Z,17.20
2022-09-01T14:27:20.170Z,15.63
2022-09-01T14:28:23.150Z,13.75
2022-09-01T14:29:25.632Z,14.80
2022-09-01T14:30:31.649Z,15.35
2022-09-01T14:31:34.373Z,14.93
2022-09-01T14:32:36.423Z,16.30
2022-09-01T14:33:38.935Z,18.63
2022-09-01T14:34:40.541Z,16.52
2022-09-01T14:35:45.628Z,16.30
2022-09-01T14:36:47.701Z,15.60
2022-09-01T14:37:49.288Z,13.95
2022-09-01T14:38:52.375Z,15.57
2022-09-01T14:39:56.155Z,21.00
2022-09-01T14:40:57.848Z,14.85
2022-09-01T14:41:59.569Z,14.98
2022-09-01T14:43:01.171Z,14.77
2022-09-01T14:44:03.633Z,15.00
2022-09-01T14:45:05.806Z,15.80
2022-09-01T14:46:10.260Z,14.35
2022-09-01T14:47:18.253Z,18.40
2022-09-01T14:48:21.676Z,16.23
2022-09-01T14:49:23.323Z,15.65
2022-09-01T14:50:25.705Z,16.48
2022-09-01T14:52:54.691Z,14.57